Time;durP1;ratioP1;P1;durP2;ratioP2;P2;SDS_P1;SDS_P2;PMS_P1;PMS_P2;Temp;Humidity;BMP_temperature;BMP_pressure;BME280_temperature;BME280_humidity;BME280_pressure;Samples;Min_cycle;Max_cycle;Signal;HPM_P1;HPM_P2
2021/05/27 00:01:06;;;;;;;12.07;7.15;;;12.50;97.10;;;;;;5055587;28;20025;-85
2021/05/27 00:03:31;;;;;;;13.75;7.97;;;12.50;97.10;;;;;;5035682;28;20028;-84
2021/05/27 00:05:57;;;;;;;17.15;7.80;;;12.50;97.10;;;;;;5054553;28;20135;-85
2021/05/27 00:08:23;;;;;;;15.52;8.65;;;12.50;97.10;;;;;;5036785;28;20499;-86
2021/05/27 00:10:48;;;;;;;11.88;7.07;;;12.50;97.10;;;;;;5072792;28;20025;-83
2021/05/27 00:13:14;;;;;;;17.67;8.85;;;12.50;97.10;;;;;;5071187;28;20023;-84
2021/05/27 00:15:41;;;;;;;14.65;7.05;;;12.50;96.90;;;;;;5047793;28;20025;-85
2021/05/27 00:18:06;;;;;;;14.07;7.20;;;12.50;97.00;;;;;;5055246;28;20484;-84
2021/05/27 00:20:32;;;;;;;16.65;7.45;;;12.50;96.90;;;;;;5038457;28;20029;-85
2021/05/27 00:22:58;;;;;;;16.85;7.20;;;12.50;96.80;;;;;;5038376;28;20025;-85
2021/05/27 00:25:23;;;;;;;14.15;6.55;;;12.50;96.90;;;;;;5059473;28;20028;-84
2021/05/27 00:27:49;;;;;;;12.98;6.72;;;12.40;96.90;;;;;;5038571;28;20024;-85
2021/05/27 00:30:16;;;;;;;17.58;8.13;;;12.50;97.00;;;;;;5034818;28;20111;-85
2021/05/27 00:32:43;;;;;;;16.27;7.00;;;12.50;96.90;;;;;;5061601;28;20127;-84
2021/05/27 00:35:09;;;;;;;14.60;6.15;;;12.40;96.90;;;;;;5071722;28;20020;-85
2021/05/27 00:37:35;;;;;;;20.65;7.25;;;12.40;96.80;;;;;;5054991;28;20040;-85
2021/05/27 00:40:01;;;;;;;15.90;7.22;;;12.30;96.90;;;;;;5071172;28;20044;-85
2021/05/27 00:42:27;;;;;;;14.65;6.80;;;12.30;96.80;;;;;;5054885;28;20119;-85
2021/05/27 00:45:11;;;;;;;13.13;6.88;;;12.30;96.90;;;;;;5071436;28;20119;-84
2021/05/27 00:47:38;;;;;;;18.67;6.70;;;12.30;96.90;;;;;;5053596;28;20025;-84
2021/05/27 00:50:06;;;;;;;14.35;6.82;;;12.30;96.90;;;;;;5047341;28;20486;-84
2021/05/27 00:52:32;;;;;;;20.15;8.32;;;12.20;96.90;;;;;;5062986;28;20021;-84
2021/05/27 00:54:59;;;;;;;11.45;6.68;;;12.20;97.00;;;;;;5072473;28;20037;-86
2021/05/27 00:57:36;;;;;;;13.57;6.72;;;12.20;97.10;;;;;;5084930;28;20614;-84
2021/05/27 01:00:09;;;;;;;13.82;6.63;;;12.20;97.10;;;;;;5059547;28;20339;-84
2021/05/27 01:02:35;;;;;;;16.73;7.35;;;12.20;97.20;;;;;;5067974;28;20016;-84
2021/05/27 01:05:02;;;;;;;13.50;6.75;;;12.20;97.30;;;;;;5069230;28;20217;-84
2021/05/27 01:07:28;;;;;;;12.80;6.20;;;12.20;97.30;;;;;;5070790;28;20031;-84
2021/05/27 01:09:53;;;;;;;15.88;6.72;;;12.20;97.40;;;;;;5052268;28;20041;-84
2021/05/27 01:12:19;;;;;;;16.08;7.30;;;12.20;97.40;;;;;;5070828;28;20033;-84
2021/05/27 01:17:29;;;;;;;16.27;7.03;;;12.20;97.30;;;;;;5072093;28;20051;-86
2021/05/27 01:19:54;;;;;;;16.90;7.72;;;12.10;97.30;;;;;;5053859;28;20396;-83
2021/05/27 01:22:21;;;;;;;16.48;6.30;;;12.10;97.40;;;;;;5072147;28;20431;-85
2021/05/27 01:24:49;;;;;;;14.57;7.00;;;12.10;97.30;;;;;;5037002;28;20091;-83
2021/05/27 01:27:15;;;;;;;15.52;6.93;;;12.10;97.40;;;;;;5072043;28;20103;-84
2021/05/27 01:29:41;;;;;;;13.05;6.75;;;12.00;97.50;;;;;;5070724;28;20468;-82
2021/05/27 01:32:08;;;;;;;16.15;6.20;;;12.00;97.60;;;;;;5037488;28;20047;-83
2021/05/27 01:34:34;;;;;;;15.40;6.80;;;12.00;97.50;;;;;;5053953;28;20487;-83
2021/05/27 01:37:00;;;;;;;15.93;6.60;;;12.00;97.60;;;;;;5071567;28;20460;-83
2021/05/27 01:39:26;;;;;;;16.67;7.28;;;12.00;97.50;;;;;;5070583;28;20104;-83
2021/05/27 01:41:52;;;;;;;14.00;6.07;;;12.00;97.60;;;;;;5066850;28;20053;-83
2021/05/27 01:44:17;;;;;;;14.88;6.30;;;12.00;97.50;;;;;;5060553;28;20418;-82
2021/05/27 01:46:43;;;;;;;15.13;6.63;;;12.00;97.50;;;;;;5053699;28;20032;-82
2021/05/27 01:49:09;;;;;;;16.13;7.85;;;11.90;97.50;;;;;;5070318;28;20441;-84
2021/05/27 01:51:35;;;;;;;18.13;6.50;;;11.90;97.60;;;;;;5036534;28;20048;-82
2021/05/27 01:54:02;;;;;;;13.18;6.38;;;11.90;97.60;;;;;;5035313;28;20433;-83
2021/05/27 01:56:27;;;;;;;15.18;6.22;;;11.80;97.80;;;;;;5051751;28;20021;-85
2021/05/27 01:59:04;;;;;;;14.18;6.55;;;11.80;97.70;;;;;;5037709;28;20025;-84
2021/05/27 02:01:30;;;;;;;15.10;6.30;;;11.80;97.70;;;;;;5069919;28;20075;-84
2021/05/27 02:03:56;;;;;;;16.73;7.28;;;11.70;97.80;;;;;;5051310;28;20025;-83
2021/05/27 02:06:22;;;;;;;16.45;6.97;;;11.70;97.90;;;;;;5067177;28;20040;-82
2021/05/27 02:11:33;;;;;;;16.92;7.20;;;11.60;97.90;;;;;;5061013;28;20049;-84
2021/05/27 02:13:58;;;;;;;16.90;7.03;;;11.60;98.10;;;;;;5049547;28;20103;-83
2021/05/27 02:16:24;;;;;;;15.95;6.85;;;11.60;98.20;;;;;;5037225;28;20033;-83
2021/05/27 02:18:50;;;;;;;16.45;7.32;;;11.50;98.10;;;;;;5038397;28;20024;-83
2021/05/27 02:21:15;;;;;;;15.25;6.70;;;11.50;98.20;;;;;;5063051;28;20052;-84
2021/05/27 02:23:41;;;;;;;14.73;5.90;;;11.50;98.30;;;;;;5064636;28;20075;-83
2021/05/27 02:26:07;;;;;;;13.27;5.97;;;11.50;98.40;;;;;;5033368;28;20544;-83
2021/05/27 02:28:33;;;;;;;14.63;6.97;;;11.40;98.40;;;;;;5060494;28;20028;-83
2021/05/27 02:30:58;;;;;;;14.90;6.40;;;11.40;98.40;;;;;;5069824;28;20033;-84
2021/05/27 02:33:24;;;;;;;14.88;6.13;;;11.40;98.50;;;;;;5053115;28;20027;-83
2021/05/27 02:35:50;;;;;;;11.75;6.13;;;11.40;98.60;;;;;;5071049;28;20025;-84
2021/05/27 02:38:15;;;;;;;15.10;6.57;;;11.40;98.60;;;;;;5069788;28;20033;-83
2021/05/27 02:40:41;;;;;;;16.40;7.07;;;11.40;98.70;;;;;;5071473;28;20086;-83
2021/05/27 02:43:06;;;;;;;14.50;6.68;;;11.40;98.60;;;;;;5069349;28;20492;-83
2021/05/27 02:45:32;;;;;;;15.18;7.20;;;11.30;98.70;;;;;;5049879;28;20432;-83
2021/05/27 02:47:58;;;;;;;14.25;7.53;;;11.40;98.70;;;;;;5049075;28;20025;-83
2021/05/27 02:50:23;;;;;;;14.73;7.68;;;11.30;98.70;;;;;;5053143;28;20094;-83
2021/05/27 02:52:49;;;;;;;13.55;7.00;;;11.30;98.70;;;;;;5069842;28;20086;-84
2021/05/27 02:55:15;;;;;;;16.83;7.07;;;11.30;98.80;;;;;;5070840;28;20036;-83
2021/05/27 02:57:40;;;;;;;18.05;8.35;;;11.30;98.90;;;;;;5069721;28;20174;-84
2021/05/27 03:00:07;;;;;;;17.42;8.45;;;11.30;98.90;;;;;;5082727;28;20022;-83
2021/05/27 03:02:33;;;;;;;13.93;7.40;;;11.30;98.90;;;;;;5026522;28;20401;-84
2021/05/27 03:04:58;;;;;;;16.17;7.30;;;11.20;99.20;;;;;;5069565;28;20028;-83
2021/05/27 03:07:24;;;;;;;13.38;7.63;;;11.30;99.00;;;;;;5074394;28;20037;-83
2021/05/27 03:09:50;;;;;;;16.00;7.95;;;11.20;99.00;;;;;;5049376;28;20539;-83
2021/05/27 03:12:15;;;;;;;14.40;7.25;;;11.20;99.20;;;;;;5065693;28;20489;-83
2021/05/27 03:14:41;;;;;;;14.50;6.72;;;11.20;99.10;;;;;;5061516;28;20110;-84
2021/05/27 03:17:06;;;;;;;14.70;7.68;;;11.20;99.10;;;;;;5068829;28;20041;-83
2021/05/27 03:19:32;;;;;;;21.63;8.95;;;11.20;99.10;;;;;;5061411;28;20029;-85
2021/05/27 03:21:58;;;;;;;12.05;7.00;;;11.20;99.20;;;;;;5065146;28;20037;-85
2021/05/27 03:24:23;;;;;;;17.98;7.63;;;11.20;99.20;;;;;;5071904;28;20028;-83
2021/05/27 03:26:51;;;;;;;16.35;7.50;;;11.10;99.20;;;;;;5039856;28;20039;-83
2021/05/27 03:29:20;;;;;;;17.17;7.13;;;11.10;99.20;;;;;;5072850;28;20511;-84
2021/05/27 03:31:46;;;;;;;20.20;7.30;;;11.10;99.20;;;;;;5056178;28;20048;-84
2021/05/27 03:34:12;;;;;;;15.93;6.63;;;11.10;99.30;;;;;;5052742;28;20488;-83
2021/05/27 03:36:38;;;;;;;14.70;7.22;;;11.10;99.40;;;;;;5089997;28;20032;-83
2021/05/27 03:39:06;;;;;;;22.30;8.15;;;11.10;99.40;;;;;;5060022;28;20029;-82
2021/05/27 03:41:32;;;;;;;15.23;7.25;;;11.10;99.50;;;;;;5056313;28;20098;-82
2021/05/27 03:43:58;;;;;;;18.38;7.10;;;11.00;99.40;;;;;;5056512;28;20028;-84
2021/05/27 03:46:23;;;;;;;14.25;7.15;;;11.00;99.60;;;;;;5073079;28;20075;-83
2021/05/27 03:48:49;;;;;;;12.18;6.80;;;11.00;99.50;;;;;;5049273;28;20021;-83
2021/05/27 03:51:14;;;;;;;14.57;7.03;;;11.00;99.60;;;;;;5082378;28;20037;-83
2021/05/27 03:53:40;;;;;;;15.75;6.95;;;11.00;99.60;;;;;;5072810;28;20020;-83
2021/05/27 03:56:07;;;;;;;15.63;7.18;;;11.00;99.60;;;;;;5072338;28;20097;-83
2021/05/27 04:01:16;;;;;;;13.40;7.95;;;11.00;99.70;;;;;;5072699;28;20479;-84
2021/05/27 04:09:14;;;;;;;17.42;7.32;;;10.90;99.70;;;;;;5059849;28;20059;-83
2021/05/27 04:11:40;;;;;;;13.57;6.40;;;10.90;99.70;;;;;;5072667;28;20392;-83
2021/05/27 04:14:05;;;;;;;14.90;6.68;;;10.90;99.80;;;;;;5074358;28;20452;-85
2021/05/27 04:16:31;;;;;;;15.40;6.60;;;10.90;99.90;;;;;;5055522;28;20033;-85
2021/05/27 04:18:57;;;;;;;14.82;6.53;;;10.90;99.90;;;;;;5038909;28;20385;-83
2021/05/27 04:21:22;;;;;;;17.15;7.60;;;10.90;99.90;;;;;;5073158;28;20528;-83
2021/05/27 04:23:55;;;;;;;11.13;6.00;;;10.90;99.90;;;;;;5072458;28;20032;-84
2021/05/27 04:26:47;;;;;;;14.35;6.60;;;10.90;99.90;;;;;;5075428;28;20025;-83
2021/05/27 04:29:15;;;;;;;14.35;6.57;;;10.90;99.90;;;;;;5062056;28;20496;-83
2021/05/27 04:31:41;;;;;;;13.50;6.70;;;10.90;99.90;;;;;;5073355;28;20099;-82
2021/05/27 04:34:06;;;;;;;14.93;6.47;;;10.90;99.90;;;;;;5071820;28;20067;-83
2021/05/27 04:36:32;;;;;;;13.88;6.10;;;10.90;99.90;;;;;;5070738;28;20056;-83
2021/05/27 04:38:58;;;;;;;13.45;5.68;;;10.90;99.90;;;;;;5055227;28;20463;-83
2021/05/27 04:41:44;;;;;;;14.88;6.43;;;10.90;99.90;;;;;;5054868;28;20487;-83
2021/05/27 04:44:09;;;;;;;14.18;5.78;;;11.00;99.90;;;;;;5070899;28;20545;-83
2021/05/27 04:46:35;;;;;;;15.63;6.43;;;10.90;99.90;;;;;;5053234;28;20037;-84
2021/05/27 04:49:00;;;;;;;14.85;6.32;;;10.90;99.90;;;;;;5041971;28;20036;-83
2021/05/27 04:51:26;;;;;;;13.13;5.90;;;10.90;99.90;;;;;;5072650;28;20020;-83
2021/05/27 04:53:52;;;;;;;11.18;5.50;;;10.90;99.90;;;;;;5071825;28;20484;-83
2021/05/27 04:56:17;;;;;;;13.65;6.10;;;10.90;99.90;;;;;;5071140;28;20028;-83
2021/05/27 04:58:43;;;;;;;17.10;6.65;;;10.90;99.90;;;;;;5068110;28;20033;-83
2021/05/27 05:01:09;;;;;;;15.48;6.22;;;10.90;99.90;;;;;;5041517;28;20353;-83
2021/05/27 05:03:34;;;;;;;16.75;6.90;;;10.90;99.90;;;;;;5053700;28;20016;-83
2021/05/27 05:06:00;;;;;;;13.93;6.20;;;10.90;99.90;;;;;;5054716;28;20029;-83
2021/05/27 05:08:25;;;;;;;14.32;6.45;;;10.90;99.90;;;;;;5071147;28;20392;-83
2021/05/27 05:10:51;;;;;;;14.30;6.32;;;10.90;99.90;;;;;;5047310;28;20032;-88
2021/05/27 05:13:17;;;;;;;13.57;6.50;;;10.90;99.90;;;;;;5051510;28;20115;-84
2021/05/27 05:15:43;;;;;;;18.23;6.50;;;10.90;99.90;;;;;;5068347;28;20024;-84
2021/05/27 05:18:11;;;;;;;16.02;6.47;;;10.90;99.90;;;;;;5054867;28;20037;-84
2021/05/27 05:20:40;;;;;;;14.60;6.50;;;10.90;99.90;;;;;;5046801;28;20108;-83
2021/05/27 05:23:06;;;;;;;15.25;7.43;;;11.00;99.90;;;;;;5073320;28;20453;-84
2021/05/27 05:25:34;;;;;;;15.82;7.05;;;10.90;99.90;;;;;;5054894;28;20021;-85
2021/05/27 05:28:01;;;;;;;9.05;5.45;;;10.90;99.90;;;;;;5062563;28;20095;-84
2021/05/27 05:30:28;;;;;;;12.82;6.43;;;10.90;99.90;;;;;;5066479;28;20025;-83
2021/05/27 05:32:54;;;;;;;18.77;6.70;;;11.00;99.90;;;;;;5079889;28;20087;-84
2021/05/27 05:35:21;;;;;;;16.05;7.57;;;11.00;99.90;;;;;;5066592;28;20025;-84
2021/05/27 05:37:47;;;;;;;16.55;6.88;;;11.00;99.90;;;;;;5051807;28;20393;-84
2021/05/27 05:40:16;;;;;;;12.93;6.47;;;10.90;99.90;;;;;;5081103;28;20481;-84
2021/05/27 05:42:43;;;;;;;16.20;6.40;;;10.90;99.90;;;;;;5071540;28;20021;-84
2021/05/27 05:45:11;;;;;;;16.38;7.03;;;10.90;99.90;;;;;;5062811;28;20020;-84
2021/05/27 05:47:37;;;;;;;15.77;7.20;;;10.90;99.90;;;;;;5071478;28;20031;-84
2021/05/27 05:50:05;;;;;;;12.68;6.60;;;10.90;99.90;;;;;;5054014;28;20032;-84
2021/05/27 05:52:31;;;;;;;16.20;6.53;;;10.90;99.90;;;;;;5053450;28;20106;-83
2021/05/27 05:54:57;;;;;;;15.88;6.65;;;10.90;99.90;;;;;;5053523;28;20099;-85
2021/05/27 05:57:22;;;;;;;11.20;6.18;;;10.90;99.90;;;;;;5070208;28;20036;-83
2021/05/27 05:59:48;;;;;;;15.43;6.38;;;11.00;99.90;;;;;;5069820;28;20064;-84
2021/05/27 06:02:14;;;;;;;13.40;6.70;;;11.00;99.90;;;;;;5042356;28;20028;-85
2021/05/27 06:04:40;;;;;;;13.60;6.50;;;11.00;99.90;;;;;;5070511;28;20446;-85
2021/05/27 06:07:05;;;;;;;17.17;6.53;;;11.00;99.90;;;;;;5054543;28;20045;-84
2021/05/27 06:09:31;;;;;;;11.23;5.95;;;11.00;99.90;;;;;;5069800;28;20128;-84
2021/05/27 06:11:57;;;;;;;12.57;6.25;;;11.00;99.90;;;;;;5038090;28;20032;-83
2021/05/27 06:14:23;;;;;;;12.70;5.82;;;11.00;99.90;;;;;;5070921;28;20031;-84
2021/05/27 06:16:48;;;;;;;12.70;6.32;;;11.00;99.90;;;;;;5052274;28;20045;-83
2021/05/27 06:19:14;;;;;;;17.58;6.63;;;11.00;99.90;;;;;;5053740;28;20024;-83
2021/05/27 06:21:40;;;;;;;15.38;6.72;;;11.00;99.90;;;;;;5049959;28;20029;-83
2021/05/27 06:24:08;;;;;;;14.77;6.32;;;11.00;99.90;;;;;;5053351;28;20028;-84
2021/05/27 06:26:34;;;;;;;14.50;6.50;;;11.00;99.90;;;;;;5053157;28;20073;-84
2021/05/27 06:29:00;;;;;;;12.88;6.00;;;11.00;99.90;;;;;;5036446;28;20465;-83
2021/05/27 06:31:25;;;;;;;17.13;7.63;;;11.00;99.90;;;;;;5053068;28;20396;-84
2021/05/27 06:33:51;;;;;;;12.73;6.40;;;11.00;99.90;;;;;;5056610;28;20033;-83
2021/05/27 06:36:17;;;;;;;11.48;5.70;;;11.00;99.90;;;;;;5036853;28;20051;-83
2021/05/27 06:38:43;;;;;;;13.15;5.90;;;11.00;99.90;;;;;;5069888;28;20044;-83
2021/05/27 06:41:09;;;;;;;13.65;5.95;;;11.00;99.90;;;;;;5070214;28;20492;-82
2021/05/27 06:43:35;;;;;;;18.23;6.43;;;11.00;99.90;;;;;;5069491;28;20033;-83
2021/05/27 06:46:01;;;;;;;11.98;5.78;;;11.00;99.90;;;;;;5086922;28;20032;-85
2021/05/27 06:48:26;;;;;;;13.60;5.90;;;11.00;99.90;;;;;;5053594;28;20038;-85
2021/05/27 06:50:52;;;;;;;11.75;5.30;;;11.00;99.90;;;;;;5071153;28;20025;-84
2021/05/27 06:53:19;;;;;;;11.93;5.72;;;11.00;99.90;;;;;;5044830;28;20057;-83
2021/05/27 06:55:46;;;;;;;11.02;5.18;;;11.00;99.90;;;;;;5065716;28;20017;-84
2021/05/27 06:58:12;;;;;;;16.00;6.30;;;11.00;99.90;;;;;;5070451;28;20106;-84
2021/05/27 07:00:39;;;;;;;11.57;4.85;;;11.00;99.90;;;;;;5075099;28;20491;-85
2021/05/27 07:03:06;;;;;;;13.90;6.43;;;11.10;99.90;;;;;;5072475;28;20127;-85
2021/05/27 07:05:33;;;;;;;12.50;5.32;;;11.00;99.90;;;;;;5073575;28;20518;-84
2021/05/27 07:08:01;;;;;;;15.52;5.45;;;11.10;99.90;;;;;;5073581;28;20024;-85
2021/05/27 07:10:29;;;;;;;13.25;5.47;;;11.10;99.90;;;;;;5073307;28;20045;-84
2021/05/27 07:12:57;;;;;;;11.48;5.90;;;11.10;99.90;;;;;;5073320;28;20509;-84
2021/05/27 07:15:26;;;;;;;10.90;5.03;;;11.10;99.90;;;;;;5073606;28;20518;-83
2021/05/27 07:17:52;;;;;;;13.05;4.95;;;11.10;99.90;;;;;;5073158;28;20025;-83
2021/05/27 07:20:20;;;;;;;14.27;5.30;;;11.10;99.90;;;;;;5053072;28;20021;-84
2021/05/27 07:22:45;;;;;;;11.80;5.30;;;11.10;99.90;;;;;;5069048;28;20051;-83
2021/05/27 07:25:12;;;;;;;15.32;5.75;;;11.10;99.90;;;;;;5073288;28;20020;-83
2021/05/27 07:27:38;;;;;;;13.40;5.55;;;11.10;99.90;;;;;;5072500;28;20028;-84
2021/05/27 07:30:06;;;;;;;12.85;5.30;;;11.10;99.90;;;;;;5073622;28;20487;-83
2021/05/27 07:32:33;;;;;;;12.82;5.40;;;11.10;99.90;;;;;;5072516;28;20419;-84
2021/05/27 07:34:59;;;;;;;14.07;5.82;;;11.10;99.90;;;;;;5074210;28;20050;-82
2021/05/27 07:37:25;;;;;;;12.25;5.43;;;11.10;99.90;;;;;;5055925;28;20123;-84
2021/05/27 07:39:51;;;;;;;13.73;5.88;;;11.10;99.90;;;;;;5072863;28;20021;-83
2021/05/27 07:42:16;;;;;;;12.93;5.10;;;11.10;99.90;;;;;;5056060;28;20050;-83
2021/05/27 07:44:42;;;;;;;10.82;5.38;;;11.10;99.90;;;;;;5072884;28;20032;-83
2021/05/27 07:47:08;;;;;;;11.90;5.35;;;11.10;99.90;;;;;;5056415;28;20049;-83
2021/05/27 07:49:33;;;;;;;14.15;5.40;;;11.10;99.90;;;;;;5074207;28;20078;-82
2021/05/27 07:51:59;;;;;;;12.88;5.80;;;11.10;99.90;;;;;;5070401;28;20452;-83
2021/05/27 07:54:27;;;;;;;11.48;5.47;;;11.10;99.90;;;;;;5089583;28;20496;-83
2021/05/27 07:56:53;;;;;;;10.15;4.90;;;11.10;99.90;;;;;;5072300;28;20362;-83
2021/05/27 07:59:19;;;;;;;11.82;5.10;;;11.10;99.90;;;;;;5073969;28;20420;-84
2021/05/27 08:01:45;;;;;;;13.00;5.65;;;11.10;99.90;;;;;;5072568;28;20457;-82
2021/05/27 08:04:14;;;;;;;11.63;5.53;;;11.10;99.90;;;;;;5072509;28;20104;-83
2021/05/27 08:06:41;;;;;;;9.57;5.00;;;11.10;99.90;;;;;;5073401;28;20473;-84
2021/05/27 08:09:07;;;;;;;16.00;5.10;;;11.10;99.90;;;;;;5059310;28;20049;-83
2021/05/27 08:11:42;;;;;;;11.90;4.55;;;11.10;99.90;;;;;;5043990;28;20025;-82
2021/05/27 08:14:08;;;;;;;12.13;4.70;;;11.10;99.90;;;;;;5037600;28;20392;-83
2021/05/27 08:16:34;;;;;;;14.35;5.60;;;11.20;99.90;;;;;;5063542;28;20029;-82
2021/05/27 08:19:00;;;;;;;9.90;4.95;;;11.20;99.90;;;;;;5053506;28;20516;-83
2021/05/27 08:21:29;;;;;;;11.25;5.00;;;11.10;99.90;;;;;;5053523;28;20489;-83
2021/05/27 08:23:56;;;;;;;14.85;4.80;;;11.20;99.90;;;;;;5052381;28;20039;-83
2021/05/27 08:26:22;;;;;;;13.45;5.35;;;11.20;99.90;;;;;;5041929;28;20041;-84
2021/05/27 08:28:48;;;;;;;12.48;5.47;;;11.20;99.90;;;;;;5054763;28;20032;-83
2021/05/27 08:31:14;;;;;;;11.93;5.15;;;11.20;99.90;;;;;;5039782;28;20035;-83
2021/05/27 08:33:40;;;;;;;11.20;4.88;;;11.20;99.90;;;;;;5029043;28;20499;-83
2021/05/27 08:36:07;;;;;;;11.65;4.97;;;11.30;99.90;;;;;;5056530;28;20025;-82
2021/05/27 08:38:33;;;;;;;13.40;5.10;;;11.30;99.90;;;;;;5062864;28;20563;-84
2021/05/27 08:40:59;;;;;;;9.02;4.28;;;11.30;99.90;;;;;;5050012;28;20103;-83
2021/05/27 08:43:26;;;;;;;13.27;5.72;;;11.30;99.90;;;;;;5054543;28;20123;-83
2021/05/27 08:45:52;;;;;;;10.18;4.55;;;11.30;99.90;;;;;;5053640;28;20532;-83
2021/05/27 08:48:18;;;;;;;11.07;4.97;;;11.40;99.90;;;;;;5030910;28;20060;-83
2021/05/27 08:50:46;;;;;;;13.13;5.65;;;11.40;99.90;;;;;;5042860;28;20032;-83
2021/05/27 08:53:18;;;;;;;11.38;5.43;;;11.30;99.90;;;;;;5058657;28;20064;-83
2021/05/27 08:55:46;;;;;;;10.65;4.75;;;11.40;99.90;;;;;;5065017;28;20033;-83
2021/05/27 08:58:16;;;;;;;10.15;4.85;;;11.30;99.90;;;;;;5042439;28;20036;-83
2021/05/27 09:00:42;;;;;;;11.68;5.20;;;11.40;99.90;;;;;;5057296;28;20373;-79
2021/05/27 09:03:13;;;;;;;10.27;5.00;;;11.40;99.90;;;;;;5035034;28;20035;-82
2021/05/27 09:05:40;;;;;;;10.75;5.30;;;11.40;99.90;;;;;;5065055;28;20017;-85
2021/05/27 09:08:24;;;;;;;8.80;4.80;;;11.40;99.90;;;;;;5054809;28;20090;-84
2021/05/27 09:10:51;;;;;;;11.65;5.05;;;11.40;99.90;;;;;;5056394;28;20044;-84
2021/05/27 09:13:21;;;;;;;15.15;5.90;;;11.50;99.90;;;;;;5071230;28;20091;-85
2021/05/27 09:15:48;;;;;;;11.75;5.45;;;11.40;99.90;;;;;;5067937;28;20056;-84
2021/05/27 09:18:35;;;;;;;11.35;4.78;;;11.50;99.90;;;;;;5060337;28;20468;-85
2021/05/27 09:21:03;;;;;;;12.32;5.07;;;11.50;99.90;;;;;;5058037;28;20087;-84
2021/05/27 09:23:28;;;;;;;11.80;5.43;;;11.50;99.90;;;;;;5071175;28;20028;-84
2021/05/27 09:26:09;;;;;;;12.85;5.18;;;11.50;99.90;;;;;;5036495;28;20025;-82
2021/05/27 09:28:35;;;;;;;10.88;4.65;;;11.50;99.90;;;;;;5070862;28;20507;-83
2021/05/27 09:31:11;;;;;;;13.00;5.25;;;11.50;99.90;;;;;;5071985;28;20036;-85
2021/05/27 09:34:02;;;;;;;18.40;5.55;;;11.40;99.90;;;;;;5070881;28;20021;-83
2021/05/27 09:36:28;;;;;;;10.55;4.70;;;11.50;99.90;;;;;;5070419;28;20024;-84
2021/05/27 09:38:56;;;;;;;11.00;5.15;;;11.50;99.90;;;;;;5033998;28;20139;-84
2021/05/27 09:41:24;;;;;;;13.60;5.25;;;11.40;99.90;;;;;;5068424;28;20483;-84
2021/05/27 09:43:54;;;;;;;11.80;5.43;;;11.50;99.90;;;;;;5054107;28;20439;-84
2021/05/27 09:46:24;;;;;;;11.00;5.10;;;11.50;99.90;;;;;;5070555;28;20016;-82
2021/05/27 09:49:09;;;;;;;12.38;5.20;;;11.50;99.90;;;;;;5070578;28;20353;-85
2021/05/27 09:51:36;;;;;;;14.88;5.80;;;11.50;99.90;;;;;;5067716;28;20473;-83
2021/05/27 09:54:03;;;;;;;10.75;5.30;;;11.50;99.90;;;;;;5044054;28;20095;-83
2021/05/27 09:56:38;;;;;;;8.98;5.00;;;11.50;99.90;;;;;;5051789;28;20516;-83
2021/05/27 09:59:04;;;;;;;11.27;5.22;;;11.50;99.90;;;;;;5052121;28;20418;-83
2021/05/27 10:01:30;;;;;;;14.50;6.35;;;11.60;99.90;;;;;;5053921;28;20418;-83
2021/05/27 10:04:25;;;;;;;15.18;5.72;;;11.50;99.90;;;;;;5048218;28;20029;-83
2021/05/27 10:06:51;;;;;;;15.65;5.88;;;11.60;99.90;;;;;;5061817;28;20036;-84
2021/05/27 10:09:19;;;;;;;15.02;6.05;;;11.60;99.90;;;;;;5070180;28;20526;-84
2021/05/27 10:11:46;;;;;;;15.75;7.05;;;11.60;99.90;;;;;;5053724;28;20052;-87
2021/05/27 10:14:12;;;;;;;17.98;6.70;;;11.60;99.90;;;;;;5046333;28;20064;-82
2021/05/27 10:16:38;;;;;;;16.00;7.03;;;11.60;99.90;;;;;;5069182;28;20021;-84
2021/05/27 10:19:05;;;;;;;17.48;7.35;;;11.60;99.90;;;;;;5087001;28;20024;-84
2021/05/27 10:21:31;;;;;;;16.92;6.07;;;11.60;99.90;;;;;;5070301;28;20035;-84
2021/05/27 10:23:58;;;;;;;15.82;6.70;;;11.60;99.90;;;;;;5072083;28;20116;-83
2021/05/27 10:26:24;;;;;;;16.35;6.63;;;11.70;99.90;;;;;;5039361;28;20029;-85
2021/05/27 10:28:53;;;;;;;15.27;6.22;;;11.70;99.90;;;;;;5075557;28;20483;-84
2021/05/27 10:31:24;;;;;;;18.45;6.75;;;11.70;99.90;;;;;;5074699;28;20021;-84
2021/05/27 10:33:52;;;;;;;14.25;6.30;;;11.70;99.90;;;;;;5056968;28;20028;-84
2021/05/27 10:36:18;;;;;;;17.00;6.82;;;11.80;99.90;;;;;;5062272;28;20119;-85
2021/05/27 10:38:50;;;;;;;13.65;5.97;;;11.80;99.90;;;;;;5054722;28;20592;-84
2021/05/27 10:41:22;;;;;;;15.30;6.85;;;11.80;99.90;;;;;;5072489;28;20029;-84
2021/05/27 10:44:03;;;;;;;16.88;7.47;;;11.90;99.90;;;;;;5071193;28;20104;-83
2021/05/27 10:46:30;;;;;;;20.20;7.45;;;11.90;99.90;;;;;;5084063;28;20029;-84
2021/05/27 10:48:56;;;;;;;16.63;6.88;;;11.90;99.90;;;;;;5072004;28;20048;-84
2021/05/27 10:51:51;;;;;;;18.60;8.23;;;11.90;99.90;;;;;;5072276;28;20021;-83
2021/05/27 10:54:28;;;;;;;21.98;7.70;;;11.90;99.90;;;;;;5074754;28;20041;-85
2021/05/27 10:56:53;;;;;;;18.27;7.43;;;11.90;99.90;;;;;;5072913;28;20025;-83
2021/05/27 10:59:19;;;;;;;14.15;6.85;;;11.90;99.90;;;;;;5071605;28;20391;-84
2021/05/27 11:01:45;;;;;;;15.55;7.05;;;11.90;99.90;;;;;;5049245;28;20473;-83
2021/05/27 11:04:28;;;;;;;14.95;6.75;;;11.90;99.90;;;;;;5061172;28;20032;-83
2021/05/27 11:07:15;;;;;;;16.58;6.53;;;11.90;99.90;;;;;;5072746;28;20021;-84
2021/05/27 11:09:41;;;;;;;16.70;7.47;;;11.90;99.90;;;;;;5080524;28;20063;-84
2021/05/27 11:12:20;;;;;;;16.67;6.47;;;11.90;99.90;;;;;;5050554;28;20021;-83
2021/05/27 11:15:03;;;;;;;16.98;6.43;;;11.90;99.90;;;;;;5071802;28;20095;-83
2021/05/27 11:17:29;;;;;;;17.23;6.97;;;11.90;99.90;;;;;;5070314;28;20032;-84
2021/05/27 11:25:13;;;;;;;15.00;6.25;;;12.00;99.90;;;;;;5069545;28;20029;-83
2021/05/27 11:28:24;;;;;;;17.40;6.72;;;12.00;99.90;;;;;;5068851;28;20028;-82
2021/05/27 11:30:53;;;;;;;15.40;6.75;;;12.00;99.90;;;;;;4990784;28;20609;-82
2021/05/27 11:33:19;;;;;;;16.00;7.05;;;12.00;99.90;;;;;;4966260;28;20492;-83
2021/05/27 11:35:47;;;;;;;12.40;6.00;;;12.00;99.90;;;;;;5029585;28;20120;-82
2021/05/27 11:38:14;;;;;;;15.82;6.70;;;12.00;99.90;;;;;;5070192;28;20039;-85
2021/05/27 11:40:55;;;;;;;15.20;5.95;;;12.00;99.90;;;;;;5067566;28;20025;-84
2021/05/27 11:43:30;;;;;;;13.38;6.07;;;12.00;99.90;;;;;;5069257;28;20044;-82
2021/05/27 11:45:57;;;;;;;12.63;5.88;;;12.10;99.90;;;;;;5082628;28;20397;-82
2021/05/27 11:50:52;;;;;;;11.98;5.85;;;12.10;99.90;;;;;;5073481;28;20025;-84
2021/05/27 11:53:20;;;;;;;12.07;5.63;;;12.20;99.90;;;;;;5066808;28;20795;-83
2021/05/27 11:55:57;;;;;;;15.15;6.65;;;12.20;99.90;;;;;;5052801;28;20025;-82
2021/05/27 11:58:37;;;;;;;12.55;5.90;;;12.20;99.90;;;;;;5070682;28;20036;-83
2021/05/27 12:01:26;;;;;;;12.63;6.05;;;12.30;99.90;;;;;;5066002;28;20031;-83
2021/05/27 12:04:07;;;;;;;13.13;6.40;;;12.30;99.90;;;;;;5039423;28;20052;-84
2021/05/27 12:06:46;;;;;;;14.23;6.03;;;12.40;99.90;;;;;;5057090;28;20456;-84
2021/05/27 12:09:19;;;;;;;12.77;5.82;;;12.40;99.90;;;;;;5071177;28;20494;-82
2021/05/27 12:11:45;;;;;;;12.45;6.35;;;12.40;99.90;;;;;;5057877;28;20036;-83
2021/05/27 12:14:12;;;;;;;14.52;6.05;;;12.50;99.90;;;;;;5058701;28;20032;-84
2021/05/27 12:16:38;;;;;;;13.93;5.78;;;12.50;99.90;;;;;;5040801;28;20021;-82
2021/05/27 12:19:07;;;;;;;13.75;5.80;;;12.60;99.90;;;;;;5040164;28;20098;-83
2021/05/27 12:21:34;;;;;;;14.30;6.45;;;12.60;99.90;;;;;;5064741;28;20483;-84
2021/05/27 12:24:00;;;;;;;13.75;6.18;;;12.70;99.90;;;;;;5068738;28;20025;-83
2021/05/27 12:26:26;;;;;;;11.90;5.57;;;12.70;99.90;;;;;;5073002;28;20074;-83
2021/05/27 12:28:53;;;;;;;11.27;5.45;;;12.70;99.90;;;;;;5080318;28;20043;-82
2021/05/27 12:31:20;;;;;;;11.48;5.03;;;12.80;99.90;;;;;;5073370;28;20111;-83
2021/05/27 12:33:46;;;;;;;8.43;4.90;;;12.80;99.90;;;;;;5061696;28;20037;-83
2021/05/27 12:36:13;;;;;;;11.82;5.47;;;12.80;99.90;;;;;;5069342;28;20116;-83
2021/05/27 12:38:48;;;;;;;9.85;5.25;;;12.80;99.90;;;;;;5053215;28;20033;-83
2021/05/27 12:41:15;;;;;;;12.90;5.88;;;12.80;99.90;;;;;;5067000;28;20028;-84
2021/05/27 12:43:52;;;;;;;10.07;4.90;;;12.80;99.90;;;;;;5051079;28;20032;-83
2021/05/27 12:46:33;;;;;;;12.90;5.50;;;12.80;99.90;;;;;;5035262;28;20035;-83
2021/05/27 12:48:59;;;;;;;;;;;12.80;99.90;;;;;;5072863;28;20472;-83
2021/05/27 12:51:35;;;;;;;11.75;4.80;;;12.70;99.90;;;;;;5073449;28;19908;-84
2021/05/27 12:54:01;;;;;;;8.48;4.72;;;12.70;99.90;;;;;;5072938;28;20499;-83
2021/05/27 12:56:30;;;;;;;11.05;4.82;;;12.80;99.90;;;;;;5038926;28;20024;-83
2021/05/27 12:59:07;;;;;;;8.82;4.75;;;12.80;99.90;;;;;;5064625;28;20061;-83
2021/05/27 13:01:41;;;;;;;11.70;4.50;;;12.80;99.90;;;;;;5071775;28;20028;-83
2021/05/27 13:04:08;;;;;;;9.82;5.07;;;12.80;99.90;;;;;;5060968;28;20119;-83